sensor_id;sensor_type;location;lat;lon;timestamp;pressure;altitude;pressure_sealevel;temperature;humidity
65758;BME280;52495;52.208;5.158;2023-04-19T00:01:30;102748.81;;;9.63;73.45
65758;BME280;52495;52.208;5.158;2023-04-19T00:03:57;102745.41;;;9.64;73.19
65758;BME280;52495;52.208;5.158;2023-04-19T00:06:23;102745.38;;;9.63;73.72
65758;BME280;52495;52.208;5.158;2023-04-19T00:08:55;102748.84;;;9.66;73.64
65758;BME280;52495;52.208;5.158;2023-04-19T00:11:23;102744.31;;;9.53;74.21
65758;BME280;52495;52.208;5.158;2023-04-19T00:13:50;102746.94;;;9.54;73.91
65758;BME280;52495;52.208;5.158;2023-04-19T00:16:17;102749.53;;;9.54;73.94
65758;BME280;52495;52.208;5.158;2023-04-19T00:18:43;102750.50;;;9.61;73.73
65758;BME280;52495;52.208;5.158;2023-04-19T00:21:11;102747.69;;;9.49;74.14
65758;BME280;52495;52.208;5.158;2023-04-19T00:23:37;102752.00;;;9.48;74.90
65758;BME280;52495;52.208;5.158;2023-04-19T00:26:04;102749.53;;;9.54;74.35
65758;BME280;52495;52.208;5.158;2023-04-19T00:28:33;102741.66;;;9.47;74.59
65758;BME280;52495;52.208;5.158;2023-04-19T00:31:00;102741.59;;;9.45;74.93
65758;BME280;52495;52.208;5.158;2023-04-19T00:33:27;102746.69;;;9.40;75.74
65758;BME280;52495;52.208;5.158;2023-04-19T00:35:56;102745.78;;;9.37;75.88
65758;BME280;52495;52.208;5.158;2023-04-19T00:38:22;102750.09;;;9.39;76.13
65758;BME280;52495;52.208;5.158;2023-04-19T00:40:49;102741.47;;;9.36;76.30
65758;BME280;52495;52.208;5.158;2023-04-19T00:43:16;102738.78;;;9.31;76.69
65758;BME280;52495;52.208;5.158;2023-04-19T00:45:47;102731.94;;;9.33;76.90
65758;BME280;52495;52.208;5.158;2023-04-19T00:48:14;102725.09;;;9.34;76.35
65758;BME280;52495;52.208;5.158;2023-04-19T00:50:44;102719.94;;;9.34;76.68
65758;BME280;52495;52.208;5.158;2023-04-19T00:53:11;102721.59;;;9.32;76.59
65758;BME280;52495;52.208;5.158;2023-04-19T00:55:38;102728.38;;;9.25;76.47
65758;BME280;52495;52.208;5.158;2023-04-19T00:58:06;102734.28;;;9.21;77.25
65758;BME280;52495;52.208;5.158;2023-04-19T01:00:33;102733.38;;;9.19;77.15
65758;BME280;52495;52.208;5.158;2023-04-19T01:03:01;102729.97;;;9.18;77.63
65758;BME280;52495;52.208;5.158;2023-04-19T01:05:28;102728.16;;;9.16;77.93
65758;BME280;52495;52.208;5.158;2023-04-19T01:07:56;102726.56;;;9.21;77.04
65758;BME280;52495;52.208;5.158;2023-04-19T01:10:23;102731.69;;;9.19;78.58
65758;BME280;52495;52.208;5.158;2023-04-19T01:12:50;102725.66;;;9.17;78.53
65758;BME280;52495;52.208;5.158;2023-04-19T01:15:16;102724.88;;;9.21;77.20
65758;BME280;52495;52.208;5.158;2023-04-19T01:17:43;102725.59;;;9.16;78.39
65758;BME280;52495;52.208;5.158;2023-04-19T01:20:11;102723.91;;;9.16;78.31
65758;BME280;52495;52.208;5.158;2023-04-19T01:22:39;102725.56;;;9.14;78.61
65758;BME280;52495;52.208;5.158;2023-04-19T01:25:07;102719.03;;;9.30;78.41
65758;BME280;52495;52.208;5.158;2023-04-19T01:27:34;102722.19;;;9.17;78.52
65758;BME280;52495;52.208;5.158;2023-04-19T01:30:01;102722.22;;;9.18;78.27
65758;BME280;52495;52.208;5.158;2023-04-19T01:32:28;102722.03;;;9.07;78.78
65758;BME280;52495;52.208;5.158;2023-04-19T01:34:55;102719.53;;;9.12;79.07
65758;BME280;52495;52.208;5.158;2023-04-19T01:37:21;102720.25;;;9.05;79.84
65758;BME280;52495;52.208;5.158;2023-04-19T01:39:50;102717.78;;;9.11;79.17
65758;BME280;52495;52.208;5.158;2023-04-19T01:42:16;102718.69;;;9.13;79.70
65758;BME280;52495;52.208;5.158;2023-04-19T01:44:43;102718.69;;;9.13;79.12
65758;BME280;52495;52.208;5.158;2023-04-19T01:47:10;102722.09;;;9.12;79.52
65758;BME280;52495;52.208;5.158;2023-04-19T01:49:38;102719.44;;;9.07;80.41
65758;BME280;52495;52.208;5.158;2023-04-19T01:52:05;102716.19;;;9.18;80.09
65758;BME280;52495;52.208;5.158;2023-04-19T01:54:32;102723.81;;;9.11;79.99
65758;BME280;52495;52.208;5.158;2023-04-19T01:57:00;102716.78;;;9.03;81.62
65758;BME280;52495;52.208;5.158;2023-04-19T01:59:27;102724.59;;;9.07;80.93
65758;BME280;52495;52.208;5.158;2023-04-19T02:01:54;102725.50;;;9.11;80.37
65758;BME280;52495;52.208;5.158;2023-04-19T02:04:22;102722.03;;;9.07;80.65
65758;BME280;52495;52.208;5.158;2023-04-19T02:06:49;102722.91;;;9.09;81.12
65758;BME280;52495;52.208;5.158;2023-04-19T02:09:15;102722.91;;;9.09;81.24
65758;BME280;52495;52.208;5.158;2023-04-19T02:11:44;102718.69;;;9.13;81.60
65758;BME280;52495;52.208;5.158;2023-04-19T02:14:12;102722.94;;;9.11;82.29
65758;BME280;52495;52.208;5.158;2023-04-19T02:16:39;102723.78;;;9.10;81.94
65758;BME280;52495;52.208;5.158;2023-04-19T02:19:06;102722.19;;;9.17;81.90
65758;BME280;52495;52.208;5.158;2023-04-19T02:21:33;102716.25;;;9.22;81.41
65758;BME280;52495;52.208;5.158;2023-04-19T02:24:00;102723.03;;;9.16;82.51
65758;BME280;52495;52.208;5.158;2023-04-19T02:26:27;102719.75;;;9.24;81.74
65758;BME280;52495;52.208;5.158;2023-04-19T02:28:54;102712.00;;;9.24;82.38
65758;BME280;52495;52.208;5.158;2023-04-19T02:31:22;102719.81;;;9.27;82.33
65758;BME280;52495;52.208;5.158;2023-04-19T02:33:48;102718.22;;;9.34;82.01
65758;BME280;52495;52.208;5.158;2023-04-19T02:36:15;102719.16;;;9.39;81.83
65758;BME280;52495;52.208;5.158;2023-04-19T02:38:42;102716.56;;;9.38;82.45
65758;BME280;52495;52.208;5.158;2023-04-19T02:41:08;102716.72;;;9.47;81.60
65758;BME280;52495;52.208;5.158;2023-04-19T02:43:37;102719.31;;;9.49;81.56
65758;BME280;52495;52.208;5.158;2023-04-19T02:46:04;102725.50;;;9.59;80.88
65758;BME280;52495;52.208;5.158;2023-04-19T02:48:32;102718.47;;;9.50;81.32
65758;BME280;52495;52.208;5.158;2023-04-19T02:50:59;102720.28;;;9.52;81.47
65758;BME280;52495;52.208;5.158;2023-04-19T02:53:26;102722.03;;;9.56;81.55
65758;BME280;52495;52.208;5.158;2023-04-19T02:55:53;102727.25;;;9.60;81.55
65758;BME280;52495;52.208;5.158;2023-04-19T02:58:20;102724.78;;;9.66;81.03
65758;BME280;52495;52.208;5.158;2023-04-19T03:01:13;102727.38;;;9.67;81.03
65758;BME280;52495;52.208;5.158;2023-04-19T03:03:41;102729.06;;;9.64;81.23
65758;BME280;52495;52.208;5.158;2023-04-19T03:06:08;102729.97;;;9.67;80.89
65758;BME280;52495;52.208;5.158;2023-04-19T03:08:35;102717.94;;;9.68;80.98
65758;BME280;52495;52.208;5.158;2023-04-19T03:11:02;102726.47;;;9.65;81.60
65758;BME280;52495;52.208;5.158;2023-04-19T03:13:29;102726.63;;;9.73;81.01
65758;BME280;52495;52.208;5.158;2023-04-19T03:15:56;102723.09;;;9.68;80.79
65758;BME280;52495;52.208;5.158;2023-04-19T03:18:23;102726.59;;;9.71;80.69
65758;BME280;52495;52.208;5.158;2023-04-19T03:20:54;102722.28;;;9.69;81.73
65758;BME280;52495;52.208;5.158;2023-04-19T03:23:21;102722.44;;;9.80;79.99
65758;BME280;52495;52.208;5.158;2023-04-19T03:25:49;102720.66;;;9.77;80.35
65758;BME280;52495;52.208;5.158;2023-04-19T03:28:23;102720.78;;;9.85;80.64
65758;BME280;52495;52.208;5.158;2023-04-19T03:31:09;102716.56;;;9.89;80.74
65758;BME280;52495;52.208;5.158;2023-04-19T03:33:36;102714.00;;;9.90;80.33
65758;BME280;52495;52.208;5.158;2023-04-19T03:36:06;102720.72;;;9.80;81.31
65758;BME280;52495;52.208;5.158;2023-04-19T03:38:34;102716.56;;;9.89;81.31
65758;BME280;52495;52.208;5.158;2023-04-19T03:41:01;102719.09;;;9.85;80.75
65758;BME280;52495;52.208;5.158;2023-04-19T03:43:33;102723.34;;;9.83;80.80
65758;BME280;52495;52.208;5.158;2023-04-19T03:46:00;102720.72;;;9.79;81.09
65758;BME280;52495;52.208;5.158;2023-04-19T03:48:27;102720.78;;;9.82;80.35
65758;BME280;52495;52.208;5.158;2023-04-19T03:50:54;102726.78;;;9.81;80.25
65758;BME280;52495;52.208;5.158;2023-04-19T03:53:23;102719.03;;;9.82;80.61
65758;BME280;52495;52.208;5.158;2023-04-19T03:55:50;102721.00;;;9.97;79.49
65758;BME280;52495;52.208;5.158;2023-04-19T03:58:17;102721.56;;;9.78;79.59
65758;BME280;52495;52.208;5.158;2023-04-19T04:00:51;102719.03;;;9.81;80.57
65758;BME280;52495;52.208;5.158;2023-04-19T04:03:18;102720.84;;;9.86;80.38
65758;BME280;52495;52.208;5.158;2023-04-19T04:05:47;102720.66;;;9.77;80.34
65758;BME280;52495;52.208;5.158;2023-04-19T04:08:14;102714.53;;;9.70;80.68
65758;BME280;52495;52.208;5.158;2023-04-19T04:10:42;102722.22;;;9.67;81.19
65758;BME280;52495;52.208;5.158;2023-04-19T04:13:09;102718.00;;;9.71;80.08
65758;BME280;52495;52.208;5.158;2023-04-19T04:15:44;102729.06;;;9.65;80.19
65758;BME280;52495;52.208;5.158;2023-04-19T04:18:11;102721.06;;;9.50;80.38
65758;BME280;52495;52.208;5.158;2023-04-19T04:20:38;102723.69;;;9.53;80.75
65758;BME280;52495;52.208;5.158;2023-04-19T04:23:08;102731.50;;;9.57;79.96
65758;BME280;52495;52.208;5.158;2023-04-19T04:25:38;102717.66;;;9.51;80.38
65758;BME280;52495;52.208;5.158;2023-04-19T04:28:10;102721.69;;;9.36;80.18
65758;BME280;52495;52.208;5.158;2023-04-19T04:30:38;102718.97;;;9.29;81.15
65758;BME280;52495;52.208;5.158;2023-04-19T04:33:07;102718.13;;;9.30;80.91
65758;BME280;52495;52.208;5.158;2023-04-19T04:35:37;102720.56;;;9.22;80.26
65758;BME280;52495;52.208;5.158;2023-04-19T04:38:09;102716.41;;;9.29;81.09
65758;BME280;52495;52.208;5.158;2023-04-19T04:40:37;102717.13;;;9.21;80.78
65758;BME280;52495;52.208;5.158;2023-04-19T04:43:04;102721.31;;;9.16;80.86
65758;BME280;52495;52.208;5.158;2023-04-19T04:45:34;102718.81;;;9.21;81.09
65758;BME280;52495;52.208;5.158;2023-04-19T04:48:02;102717.84;;;9.14;81.07
65758;BME280;52495;52.208;5.158;2023-04-19T04:50:30;102725.56;;;9.14;80.36
65758;BME280;52495;52.208;5.158;2023-04-19T04:52:57;102723.69;;;9.05;81.04
65758;BME280;52495;52.208;5.158;2023-04-19T04:55:28;102720.28;;;9.08;81.10
65758;BME280;52495;52.208;5.158;2023-04-19T04:57:55;102723.47;;;8.94;81.47
65758;BME280;52495;52.208;5.158;2023-04-19T05:00:29;102721.19;;;9.08;80.64
65758;BME280;52495;52.208;5.158;2023-04-19T05:03:01;102722.69;;;8.99;80.79
65758;BME280;52495;52.208;5.158;2023-04-19T05:05:29;102717.63;;;9.02;80.14
65758;BME280;52495;52.208;5.158;2023-04-19T05:07:56;102723.47;;;8.93;80.61
65758;BME280;52495;52.208;5.158;2023-04-19T05:10:23;102720.06;;;8.97;80.19
65758;BME280;52495;52.208;5.158;2023-04-19T05:12:49;102723.41;;;8.91;80.82
65758;BME280;52495;52.208;5.158;2023-04-19T05:15:16;102725.03;;;8.86;80.31
65758;BME280;52495;52.208;5.158;2023-04-19T05:17:48;102719.00;;;8.86;80.30
65758;BME280;52495;52.208;5.158;2023-04-19T05:20:16;102726.66;;;8.83;80.65
65758;BME280;52495;52.208;5.158;2023-04-19T05:22:44;102724.13;;;8.84;80.49
65758;BME280;52495;52.208;5.158;2023-04-19T05:25:11;102728.69;;;8.98;79.83
65758;BME280;52495;52.208;5.158;2023-04-19T05:27:38;102730.22;;;8.89;79.14
65758;BME280;52495;52.208;5.158;2023-04-19T05:30:06;102725.06;;;8.89;78.48
65758;BME280;52495;52.208;5.158;2023-04-19T05:32:37;102730.22;;;8.88;78.77
65758;BME280;52495;52.208;5.158;2023-04-19T05:35:05;102733.56;;;8.84;79.21
65758;BME280;52495;52.208;5.158;2023-04-19T05:37:33;102727.56;;;8.85;77.90
65758;BME280;52495;52.208;5.158;2023-04-19T05:40:01;102731.78;;;8.81;78.88
65758;BME280;52495;52.208;5.158;2023-04-19T05:42:29;102730.97;;;8.84;78.63
65758;BME280;52495;52.208;5.158;2023-04-19T05:44:57;102731.06;;;8.88;78.66
65758;BME280;52495;52.208;5.158;2023-04-19T05:47:24;102722.78;;;9.02;77.04
65758;BME280;52495;52.208;5.158;2023-04-19T05:50:17;102734.50;;;8.87;76.87
65758;BME280;52495;52.208;5.158;2023-04-19T05:52:59;102724.97;;;8.83;77.39
65758;BME280;52495;52.208;5.158;2023-04-19T05:55:26;102724.31;;;8.93;77.40
65758;BME280;52495;52.208;5.158;2023-04-19T05:57:53;102724.44;;;9.00;75.95
65758;BME280;52495;52.208;5.158;2023-04-19T06:00:23;102722.69;;;8.99;76.04
65758;BME280;52495;52.208;5.158;2023-04-19T06:02:58;102719.97;;;8.91;75.96
65758;BME280;52495;52.208;5.158;2023-04-19T06:05:25;102721.81;;;8.96;75.54
65758;BME280;52495;52.208;5.158;2023-04-19T06:07:52;102725.56;;;9.14;74.10
65758;BME280;52495;52.208;5.158;2023-04-19T06:10:22;102725.44;;;9.08;73.69
65758;BME280;52495;52.208;5.158;2023-04-19T06:12:48;102740.69;;;8.97;73.67
65758;BME280;52495;52.208;5.158;2023-04-19T06:15:15;102731.34;;;9.01;73.44
65758;BME280;52495;52.208;5.158;2023-04-19T06:17:42;102729.91;;;9.15;72.50
65758;BME280;52495;52.208;5.158;2023-04-19T06:20:10;102735.19;;;9.23;71.22
65758;BME280;52495;52.208;5.158;2023-04-19T06:22:41;102735.88;;;9.14;71.92
65758;BME280;52495;52.208;5.158;2023-04-19T06:25:08;102738.06;;;9.40;69.99
65758;BME280;52495;52.208;5.158;2023-04-19T06:27:36;102728.56;;;9.36;70.07
65758;BME280;52495;52.208;5.158;2023-04-19T06:30:04;102728.72;;;9.45;69.18
65758;BME280;52495;52.208;5.158;2023-04-19T06:32:30;102735.47;;;9.38;68.95
65758;BME280;52495;52.208;5.158;2023-04-19T06:34:57;102732.06;;;9.41;67.84
65758;BME280;52495;52.208;5.158;2023-04-19T06:37:24;102738.13;;;9.41;68.25
65758;BME280;52495;52.208;5.158;2023-04-19T06:39:51;102728.66;;;9.42;66.95
65758;BME280;52495;52.208;5.158;2023-04-19T06:42:17;102734.84;;;9.50;66.55
65758;BME280;52495;52.208;5.158;2023-04-19T06:44:46;102736.66;;;9.57;66.75
65758;BME280;52495;52.208;5.158;2023-04-19T06:47:13;102734.13;;;9.59;66.58
65758;BME280;52495;52.208;5.158;2023-04-19T06:49:40;102735.94;;;9.63;66.81
65758;BME280;52495;52.208;5.158;2023-04-19T06:52:06;102737.75;;;9.70;66.40
65758;BME280;52495;52.208;5.158;2023-04-19T06:54:33;102732.84;;;9.84;64.84
65758;BME280;52495;52.208;5.158;2023-04-19T06:57:00;102722.19;;;9.64;64.18
65758;BME280;52495;52.208;5.158;2023-04-19T06:59:27;102737.09;;;9.81;64.53
65758;BME280;52495;52.208;5.158;2023-04-19T07:01:58;102742.97;;;9.74;65.49
65758;BME280;52495;52.208;5.158;2023-04-19T07:04:25;102742.13;;;9.73;64.97
65758;BME280;52495;52.208;5.158;2023-04-19T07:06:52;102755.28;;;9.89;64.60
65758;BME280;52495;52.208;5.158;2023-04-19T07:09:19;102733.94;;;10.00;64.06
65758;BME280;52495;52.208;5.158;2023-04-19T07:11:45;102742.44;;;9.93;65.06
65758;BME280;52495;52.208;5.158;2023-04-19T07:14:12;102746.22;;;10.17;62.91
65758;BME280;52495;52.208;5.158;2023-04-19T07:16:40;102737.75;;;10.24;62.95
65758;BME280;52495;52.208;5.158;2023-04-19T07:19:08;102741.19;;;10.23;62.45
65758;BME280;52495;52.208;5.158;2023-04-19T07:21:35;102739.78;;;10.45;61.25
65758;BME280;52495;52.208;5.158;2023-04-19T07:24:03;102737.16;;;10.42;60.98
65758;BME280;52495;52.208;5.158;2023-04-19T07:26:30;102750.22;;;10.50;60.34
65758;BME280;52495;52.208;5.158;2023-04-19T07:28:58;102749.47;;;10.60;57.12
65758;BME280;52495;52.208;5.158;2023-04-19T07:31:25;102746.09;;;10.66;54.08
65758;BME280;52495;52.208;5.158;2023-04-19T07:33:53;102735.06;;;10.78;53.56
65758;BME280;52495;52.208;5.158;2023-04-19T07:36:21;102743.06;;;10.98;52.78
65758;BME280;52495;52.208;5.158;2023-04-19T07:38:48;102739.84;;;11.16;50.11
65758;BME280;52495;52.208;5.158;2023-04-19T07:41:14;102734.59;;;11.08;50.55
65758;BME280;52495;52.208;5.158;2023-04-19T07:43:42;102733.72;;;11.10;47.87
65758;BME280;52495;52.208;5.158;2023-04-19T07:46:09;102732.03;;;11.13;49.32
65758;BME280;52495;52.208;5.158;2023-04-19T07:48:36;102738.19;;;11.23;48.71
65758;BME280;52495;52.208;5.158;2023-04-19T07:51:08;102737.44;;;11.35;49.44
65758;BME280;52495;52.208;5.158;2023-04-19T07:53:37;102731.50;;;11.44;49.28
65758;BME280;52495;52.208;5.158;2023-04-19T07:56:05;102731.66;;;11.64;47.15
65758;BME280;52495;52.208;5.158;2023-04-19T07:58:32;102736.91;;;11.73;46.98
65758;BME280;52495;52.208;5.158;2023-04-19T08:00:59;102729.88;;;11.57;46.20
65758;BME280;52495;52.208;5.158;2023-04-19T08:03:26;102751.44;;;11.57;45.69
65758;BME280;52495;52.208;5.158;2023-04-19T08:05:53;102732.34;;;11.43;44.99
65758;BME280;52495;52.208;5.158;2023-04-19T08:08:20;102745.41;;;11.55;44.16
65758;BME280;52495;52.208;5.158;2023-04-19T08:10:49;102731.59;;;11.58;44.61
65758;BME280;52495;52.208;5.158;2023-04-19T08:13:19;102742.91;;;11.67;44.55
65758;BME280;52495;52.208;5.158;2023-04-19T08:15:45;102735.13;;;11.63;44.88
65758;BME280;52495;52.208;5.158;2023-04-19T08:18:12;102738.63;;;11.69;44.80
65758;BME280;52495;52.208;5.158;2023-04-19T08:20:39;102746.47;;;11.80;44.85
65758;BME280;52495;52.208;5.158;2023-04-19T08:23:07;102730.13;;;11.86;44.42
65758;BME280;52495;52.208;5.158;2023-04-19T08:25:34;102737.09;;;11.93;44.50
65758;BME280;52495;52.208;5.158;2023-04-19T08:28:03;102735.47;;;12.03;43.63
65758;BME280;52495;52.208;5.158;2023-04-19T08:30:30;102725.13;;;12.03;43.58
65758;BME280;52495;52.208;5.158;2023-04-19T08:32:57;102729.50;;;12.13;43.07
65758;BME280;52495;52.208;5.158;2023-04-19T08:35:24;102731.22;;;12.16;42.94
65758;BME280;52495;52.208;5.158;2023-04-19T08:37:50;102727.75;;;12.12;43.22
65758;BME280;52495;52.208;5.158;2023-04-19T08:40:17;102732.13;;;12.21;41.46
65758;BME280;52495;52.208;5.158;2023-04-19T08:42:44;102737.25;;;12.15;41.85
65758;BME280;52495;52.208;5.158;2023-04-19T08:45:15;102731.28;;;12.22;41.47
65758;BME280;52495;52.208;5.158;2023-04-19T08:47:42;102727.78;;;12.16;41.82
65758;BME280;52495;52.208;5.158;2023-04-19T08:50:10;102718.25;;;12.13;41.46
65758;BME280;52495;52.208;5.158;2023-04-19T08:52:37;102722.66;;;12.23;41.56
65758;BME280;52495;52.208;5.158;2023-04-19T08:55:06;102728.75;;;12.33;40.83
65758;BME280;52495;52.208;5.158;2023-04-19T08:57:34;102727.94;;;12.39;41.21
65758;BME280;52495;52.208;5.158;2023-04-19T09:00:02;102720.16;;;12.37;40.62
65758;BME280;52495;52.208;5.158;2023-04-19T09:02:45;102716.66;;;12.29;40.81
65758;BME280;52495;52.208;5.158;2023-04-19T09:05:14;102727.88;;;12.33;40.95
65758;BME280;52495;52.208;5.158;2023-04-19T09:07:41;102729.63;;;12.35;41.22
65758;BME280;52495;52.208;5.158;2023-04-19T09:10:09;102716.72;;;12.43;40.52
65758;BME280;52495;52.208;5.158;2023-04-19T09:12:37;102724.53;;;12.51;40.90
65758;BME280;52495;52.208;5.158;2023-04-19T09:15:06;102712.47;;;12.57;40.47
65758;BME280;52495;52.208;5.158;2023-04-19T09:17:34;102714.22;;;12.63;40.40
65758;BME280;52495;52.208;5.158;2023-04-19T09:20:03;102711.69;;;12.77;40.14
65758;BME280;52495;52.208;5.158;2023-04-19T09:22:30;102715.19;;;12.87;40.00
65758;BME280;52495;52.208;5.158;2023-04-19T09:24:58;102710.00;;;12.79;39.30
65758;BME280;52495;52.208;5.158;2023-04-19T09:27:27;102710.88;;;13.00;38.76
65758;BME280;52495;52.208;5.158;2023-04-19T09:29:54;102710.84;;;12.83;38.88
65758;BME280;52495;52.208;5.158;2023-04-19T09:32:21;102713.47;;;12.90;38.87
65758;BME280;52495;52.208;5.158;2023-04-19T09:34:52;102710.88;;;12.92;37.29
65758;BME280;52495;52.208;5.158;2023-04-19T09:37:21;102708.25;;;12.84;37.17
65758;BME280;52495;52.208;5.158;2023-04-19T09:39:48;102706.53;;;12.86;38.30
65758;BME280;52495;52.208;5.158;2023-04-19T09:42:16;102699.69;;;13.05;37.90
65758;BME280;52495;52.208;5.158;2023-04-19T09:45:02;102693.59;;;12.94;38.68
65758;BME280;52495;52.208;5.158;2023-04-19T09:47:29;102700.56;;;13.09;37.77
65758;BME280;52495;52.208;5.158;2023-04-19T09:50:05;102696.22;;;13.10;38.93
65758;BME280;52495;52.208;5.158;2023-04-19T09:52:34;102697.97;;;13.21;39.01
65758;BME280;52495;52.208;5.158;2023-04-19T09:55:03;102699.72;;;13.27;38.31
65758;BME280;52495;52.208;5.158;2023-04-19T09:57:30;102701.44;;;13.33;38.59
65758;BME280;52495;52.208;5.158;2023-04-19T09:59:58;102699.78;;;13.47;38.08
65758;BME280;52495;52.208;5.158;2023-04-19T10:02:29;102707.56;;;13.52;38.03
65758;BME280;52495;52.208;5.158;2023-04-19T10:04:57;102696.34;;;13.56;38.22
65758;BME280;52495;52.208;5.158;2023-04-19T10:07:25;102690.25;;;13.71;37.96
65758;BME280;52495;52.208;5.158;2023-04-19T10:09:56;102689.41;;;13.75;38.46
65758;BME280;52495;52.208;5.158;2023-04-19T10:12:25;102680.72;;;13.78;38.09
65758;BME280;52495;52.208;5.158;2023-04-19T10:14:53;102688.53;;;13.72;39.20
65758;BME280;52495;52.208;5.158;2023-04-19T10:17:21;102679.00;;;13.86;38.55
65758;BME280;52495;52.208;5.158;2023-04-19T10:19:51;102666.88;;;13.91;38.77
65758;BME280;52495;52.208;5.158;2023-04-19T10:22:21;102665.94;;;14.11;38.20
65758;BME280;52495;52.208;5.158;2023-04-19T10:25:12;102673.75;;;14.13;37.28
65758;BME280;52495;52.208;5.158;2023-04-19T10:27:40;102669.38;;;14.24;36.79
65758;BME280;52495;52.208;5.158;2023-04-19T10:30:16;102659.88;;;14.24;37.75
65758;BME280;52495;52.208;5.158;2023-04-19T10:32:45;102656.34;;;14.36;38.12
65758;BME280;52495;52.208;5.158;2023-04-19T10:35:20;102656.28;;;14.52;36.07
65758;BME280;52495;52.208;5.158;2023-04-19T10:38:07;102665.84;;;14.47;36.07
65758;BME280;52495;52.208;5.158;2023-04-19T10:40:55;102652.81;;;14.51;36.28
65758;BME280;52495;52.208;5.158;2023-04-19T10:43:24;102655.38;;;14.61;36.43
65758;BME280;52495;52.208;5.158;2023-04-19T10:45:51;102640.66;;;14.69;36.98
65758;BME280;52495;52.208;5.158;2023-04-19T10:48:35;102640.59;;;14.74;37.18
65758;BME280;52495;52.208;5.158;2023-04-19T10:51:07;102646.69;;;14.69;35.00
65758;BME280;52495;52.208;5.158;2023-04-19T10:53:52;102651.84;;;14.80;34.76
65758;BME280;52495;52.208;5.158;2023-04-19T10:59:14;102641.38;;;14.91;35.53
65758;BME280;52495;52.208;5.158;2023-04-19T11:01:53;102640.47;;;15.01;34.36
65758;BME280;52495;52.208;5.158;2023-04-19T11:04:23;102637.06;;;14.89;34.61
65758;BME280;52495;52.208;5.158;2023-04-19T11:07:02;102634.44;;;14.87;34.90
65758;BME280;52495;52.208;5.158;2023-04-19T11:09:30;102631.72;;;15.09;34.70
65758;BME280;52495;52.208;5.158;2023-04-19T11:12:01;102625.59;;;15.16;34.88
65758;BME280;52495;52.208;5.158;2023-04-19T11:14:30;102629.88;;;15.23;34.68
65758;BME280;52495;52.208;5.158;2023-04-19T11:16:58;102629.88;;;15.23;33.56
65758;BME280;52495;52.208;5.158;2023-04-19T11:19:25;102625.41;;;15.39;33.48
65758;BME280;52495;52.208;5.158;2023-04-19T11:21:51;102621.09;;;15.38;33.27
65758;BME280;52495;52.208;5.158;2023-04-19T11:24:23;102613.25;;;15.41;33.86
65758;BME280;52495;52.208;5.158;2023-04-19T11:26:50;102615.75;;;15.52;33.46
65758;BME280;52495;52.208;5.158;2023-04-19T11:29:18;102605.19;;;15.68;32.23
65758;BME280;52495;52.208;5.158;2023-04-19T11:31:46;102593.06;;;15.63;32.28
65758;BME280;52495;52.208;5.158;2023-04-19T11:34:12;102595.63;;;15.70;32.16
65758;BME280;52495;52.208;5.158;2023-04-19T11:36:46;102606.75;;;15.87;30.39
65758;BME280;52495;52.208;5.158;2023-04-19T11:39:13;102595.47;;;15.81;30.70
65758;BME280;52495;52.208;5.158;2023-04-19T11:41:40;102590.34;;;15.76;30.91
65758;BME280;52495;52.208;5.158;2023-04-19T11:44:14;102589.34;;;15.89;28.06
65758;BME280;52495;52.208;5.158;2023-04-19T11:46:56;102588.50;;;15.83;28.53
65758;BME280;52495;52.208;5.158;2023-04-19T11:49:27;102577.34;;;15.73;28.21
65758;BME280;52495;52.208;5.158;2023-04-19T11:51:56;102579.88;;;15.79;29.65
65758;BME280;52495;52.208;5.158;2023-04-19T11:54:23;102566.81;;;15.88;29.22
65758;BME280;52495;52.208;5.158;2023-04-19T11:57:00;102564.88;;;16.03;27.75
65758;BME280;52495;52.208;5.158;2023-04-19T11:59:28;102552.69;;;16.06;28.80
65758;BME280;52495;52.208;5.158;2023-04-19T12:02:03;102557.75;;;16.17;28.29
65758;BME280;52495;52.208;5.158;2023-04-19T12:04:30;102557.66;;;16.23;28.36
65758;BME280;52495;52.208;5.158;2023-04-19T12:06:58;102557.50;;;16.34;29.21
65758;BME280;52495;52.208;5.158;2023-04-19T12:09:25;102558.34;;;16.38;29.15
65758;BME280;52495;52.208;5.158;2023-04-19T12:11:52;102554.78;;;16.44;28.87
65758;BME280;52495;52.208;5.158;2023-04-19T12:14:20;102570.38;;;16.48;29.47
65758;BME280;52495;52.208;5.158;2023-04-19T12:17:06;102564.22;;;16.51;28.38
65758;BME280;52495;52.208;5.158;2023-04-19T12:19:41;102563.56;;;16.38;28.72
65758;BME280;52495;52.208;5.158;2023-04-19T12:22:12;102568.81;;;16.35;28.40
65758;BME280;52495;52.208;5.158;2023-04-19T12:24:40;102561.03;;;16.32;27.83
65758;BME280;52495;52.208;5.158;2023-04-19T12:27:07;102558.50;;;16.26;27.94
65758;BME280;52495;52.208;5.158;2023-04-19T12:29:34;102564.75;;;16.12;28.49
65758;BME280;52495;52.208;5.158;2023-04-19T12:32:02;102558.66;;;16.13;28.74
65758;BME280;52495;52.208;5.158;2023-04-19T12:34:30;102543.97;;;16.06;28.52
65758;BME280;52495;52.208;5.158;2023-04-19T12:36:57;102556.03;;;16.16;29.80
65758;BME280;52495;52.208;5.158;2023-04-19T12:39:24;102548.09;;;16.24;29.55
65758;BME280;52495;52.208;5.158;2023-04-19T12:41:51;102549.75;;;16.30;29.04
65758;BME280;52495;52.208;5.158;2023-04-19T12:44:17;102536.72;;;16.30;28.71
65758;BME280;52495;52.208;5.158;2023-04-19T12:46:44;102543.72;;;16.28;29.07
65758;BME280;52495;52.208;5.158;2023-04-19T12:49:11;102548.84;;;16.32;28.28
65758;BME280;52495;52.208;5.158;2023-04-19T12:51:39;102536.69;;;16.31;28.58
65758;BME280;52495;52.208;5.158;2023-04-19T12:54:07;102533.13;;;16.38;29.18
65758;BME280;52495;52.208;5.158;2023-04-19T12:56:34;102536.63;;;16.39;29.63
65758;BME280;52495;52.208;5.158;2023-04-19T12:59:01;102535.06;;;16.24;29.99
65758;BME280;52495;52.208;5.158;2023-04-19T13:01:27;102523.81;;;16.22;30.34
65758;BME280;52495;52.208;5.158;2023-04-19T13:03:54;102516.81;;;16.26;30.46
65758;BME280;52495;52.208;5.158;2023-04-19T13:06:21;102526.31;;;16.30;30.66